G.l. 54 — WDH5375 — position and weather

sailwx.info

Track history (hours):
 
Tides and Currents Weather Stations Pressure Air Temp Water Temp Dewpoint Dewpoint Depression Visibility Wind Speed Wind Dir Waves Ship Positions

G.l. 54

Owner: Great Lakes Dredge & Dock Company, LLC, Oak Brook, IL. More information available from US FCC via Universal Licensing System and Coast Guard Vessel Documentation Center.

Last reported at 2017-Nov-25 02:00 UTC. Time now 2017-Nov-25 02:08 UTC.
Position N 42°23' W 071°03'.

Length 69 m.

Type: Dredging. MMSI: 338025000.

Date/timePositionNaut miles runAvg speedWind from/ knotsBaromVisibWave heightAir tempDewpointWater temp
2017-Nov-25 02:00N 42°23' W 071°03'0 0.1
2017-Nov-25 01:30N 42°23' W 071°03'0 0.0
2017-Nov-25 01:00N 42°23' W 071°03'0 0.0
2017-Nov-25 00:30N 42°23' W 071°03'0 0.0
2017-Nov-24 23:59N 42°23' W 071°03'0 0.0
2017-Nov-24 23:30N 42°23' W 071°03'0 0.0
2017-Nov-24 22:59N 42°23' W 071°03'1 1.3
2017-Nov-24 22:30N 42°22' W 071°03'5 3.0
2017-Nov-24 20:45N 42°21' W 070°56'1 1.6
2017-Nov-24 20:06N 42°22' W 070°55'6 3.5
2017-Nov-24 18:27N 42°22' W 071°03'1 1.3
2017-Nov-24 18:00N 42°22' W 071°03'0 0.0
2017-Nov-24 17:30N 42°22' W 071°03'0 0.0
2017-Nov-24 17:00N 42°22' W 071°03'0 0.0
2017-Nov-24 16:28N 42°22' W 071°03'0 0.0
2017-Nov-24 16:01N 42°22' W 071°03'0 0.0
2017-Nov-24 15:30N 42°22' W 071°03'0 0.0
2017-Nov-24 15:01N 42°22' W 071°03'0 0.0
2017-Nov-24 14:31N 42°22' W 071°03'0 0.0
2017-Nov-24 14:00N 42°22' W 071°03'0 0.0
2017-Nov-24 13:31N 42°22' W 071°03'0 0.0
2017-Nov-24 13:00N 42°22' W 071°03'0 0.0
2017-Nov-24 12:30N 42°22' W 071°03'0 0.0
2017-Nov-24 12:00N 42°22' W 071°03'0 0.0
2017-Nov-24 11:30N 42°22' W 071°03'0 0.0
2017-Nov-24 11:00N 42°22' W 071°03'0 0.0
2017-Nov-24 10:30N 42°22' W 071°03'0 0.0
2017-Nov-24 10:00N 42°22' W 071°03'0 0.0
2017-Nov-24 09:30N 42°22' W 071°03'0 0.0
2017-Nov-24 09:00N 42°22' W 071°03'0 0.0
2017-Nov-24 08:30N 42°22' W 071°03'0 0.0
2017-Nov-24 08:01N 42°22' W 071°03'0 0.0
2017-Nov-24 07:30N 42°22' W 071°03'0 0.0
2017-Nov-24 07:00N 42°22' W 071°03'0 0.0
2017-Nov-24 06:31N 42°22' W 071°03'0 0.0
2017-Nov-24 06:00N 42°22' W 071°03'0 0.0
2017-Nov-24 05:30N 42°22' W 071°03'0 0.0
2017-Nov-24 05:01N 42°22' W 071°03'0 0.0
2017-Nov-24 04:30N 42°22' W 071°03'0 0.0
2017-Nov-24 04:00N 42°22' W 071°03'0 0.0
2017-Nov-24 03:30N 42°22' W 071°03'0 0.0
2017-Nov-24 03:01N 42°22' W 071°03'0 0.0
2017-Nov-24 02:30N 42°22' W 071°03'0 0.0
2017-Nov-24 02:00N 42°22' W 071°03'0 0.0
2017-Nov-24 01:31N 42°22' W 071°03'0 0.0
2017-Nov-24 01:01N 42°22' W 071°03'0 0.0
2017-Nov-24 00:30N 42°22' W 071°03'0 0.4
2017-Nov-23 23:59N 42°23' W 071°03'0 0.3
2017-Nov-23 23:30N 42°23' W 071°03'0 0.0
2017-Nov-23 23:00N 42°23' W 071°03'1 1.3
2017-Nov-23 22:30N 42°22' W 071°03'1 1.1
2017-Nov-23 21:09N 42°21' W 071°02'2 1.4
2017-Nov-23 19:59N 42°22' W 071°03'0 0.2
2017-Nov-23 18:02N 42°23' W 071°03'0 2.7
2017-Nov-23 17:57N 42°23' W 071°03'0 0.1
2017-Nov-23 16:03N 42°22' W 071°03'0 0.0
2017-Nov-23 15:52N 42°22' W 071°03'0 0.0
2017-Nov-23 15:31N 42°22' W 071°03'0 0.0
2017-Nov-23 14:50N 42°22' W 071°03'0 0.3
2017-Nov-23 14:22N 42°22' W 071°03'0 0.2
2017-Nov-23 13:58N 42°23' W 071°03'0 0.0
2017-Nov-23 12:29N 42°23' W 071°03'0 0.1
2017-Nov-23 09:48N 42°23' W 071°03'0 0.2
2017-Nov-23 08:45N 42°23' W 071°03'0 0.1
2017-Nov-23 06:49N 42°23' W 071°03'0 0.1
2017-Nov-23 06:30N 42°23' W 071°03'0 0.0
2017-Nov-23 05:58N 42°23' W 071°03'0 0.3
2017-Nov-23 05:30N 42°23' W 071°03'0 0.4
2017-Nov-23 04:48N 42°23' W 071°03'0 0.1
2017-Nov-23 04:28N 42°23' W 071°03'0 0.1
2017-Nov-23 03:54N 42°23' W 071°03'0 0.4
2017-Nov-23 03:29N 42°22' W 071°03'0 0.1
2017-Nov-23 03:01N 42°22' W 071°03'0 0.0
2017-Nov-23 02:30N 42°22' W 071°03'0 0.4
2017-Nov-23 01:49N 42°23' W 071°03'0 0.2
2017-Nov-23 01:30N 42°22' W 071°03'0 0.0
2017-Nov-23 01:00N 42°22' W 071°03'0 0.0
2017-Nov-23 00:30N 42°22' W 071°03'0 0.0
2017-Nov-23 00:00N 42°22' W 071°03'0 0.0
2017-Nov-22 23:30N 42°22' W 071°03'0 0.0
2017-Nov-22 23:00N 42°22' W 071°03'0 0.0
2017-Nov-22 22:30N 42°22' W 071°03'0 0.0
2017-Nov-22 21:57N 42°22' W 071°03'0 0.0
2017-Nov-22 21:30N 42°22' W 071°03'0 0.0
2017-Nov-22 20:59N 42°22' W 071°03'0 0.0
2017-Nov-22 20:26N 42°22' W 071°03'0 0.0
2017-Nov-22 20:00N 42°22' W 071°03'1 1.6
2017-Nov-22 19:28N 42°22' W 071°02'  
2017-Nov-18 14:16N 42°23' W 071°03'0 0.0
2017-Nov-18 13:58N 42°23' W 071°03'0 0.0
2017-Nov-18 13:25N 42°23' W 071°03'0 0.0
2017-Nov-18 13:00N 42°23' W 071°03'0 0.0
2017-Nov-17 19:43N 42°23' W 071°03'0 0.0
2017-Nov-17 18:42N 42°23' W 071°03'0 0.0
2017-Nov-17 18:25N 42°23' W 071°03'0 0.0
2017-Nov-17 10:15N 42°23' W 071°03'0 0.0
2017-Nov-17 10:00N 42°23' W 071°03'0 0.0
2017-Nov-17 09:28N 42°23' W 071°03'0 0.0
2017-Nov-17 08:55N 42°23' W 071°03'0 0.0
2017-Nov-17 08:30N 42°23' W 071°03'0 0.0
2017-Nov-17 07:59N 42°23' W 071°03'0 0.0
2017-Nov-17 07:29N 42°23' W 071°03'0 0.0
2017-Nov-17 06:54N 42°23' W 071°03'0 0.0
2017-Nov-17 06:24N 42°23' W 071°03'0 0.0
2017-Nov-17 05:57N 42°23' W 071°03'0 0.0
2017-Nov-17 05:28N 42°23' W 071°03'0 0.0
2017-Nov-17 04:56N 42°23' W 071°03'0 0.0
2017-Nov-17 04:29N 42°23' W 071°03'0 0.0
2017-Nov-17 03:58N 42°23' W 071°03'0 0.0
2017-Nov-17 03:31N 42°23' W 071°03'0 0.0
2017-Nov-17 02:53N 42°23' W 071°03'0 0.0
2017-Nov-16 19:52N 42°23' W 071°03'0 0.0
2017-Nov-16 10:09N 42°23' W 071°03'0 0.0
2017-Nov-16 09:48N 42°23' W 071°03'0 0.0
2017-Nov-16 06:06N 42°23' W 071°03'0 0.0
2017-Nov-16 05:56N 42°23' W 071°03'0 0.0
2017-Nov-16 05:22N 42°23' W 071°03'0 0.0
2017-Nov-16 03:47N 42°23' W 071°03'0 0.0
2017-Nov-16 03:17N 42°23' W 071°03'0 0.0
2017-Nov-16 02:59N 42°23' W 071°03'0 0.0
2017-Nov-16 02:24N 42°23' W 071°03'0 0.0
2017-Nov-16 01:50N 42°23' W 071°03'0 0.0
2017-Nov-15 23:41N 42°23' W 071°03'0 0.0
2017-Nov-15 23:25N 42°23' W 071°03'0 0.0
2017-Nov-15 03:15N 42°23' W 071°03'  
Track history (hours):
 
Tides and Currents Weather Stations Pressure Air Temp Water Temp Dewpoint Dewpoint Depression Visibility Wind Speed Wind Dir Waves Ship Positions

G.l. 54

Owner: Great Lakes Dredge & Dock Company, LLC, Oak Brook, IL. More information available from US FCC via Universal Licensing System and Coast Guard Vessel Documentation Center.

Last reported at 2017-Nov-25 02:00 UTC. Time now 2017-Nov-25 02:08 UTC.
Position N 42°23' W 071°03'.

Length 69 m.

Type: Dredging. MMSI: 338025000.

Date/timePositionNaut miles runAvg speedWind from/ knotsBaromVisibWave heightAir tempDewpointWater temp
2017-Nov-25 02:00N 42°23' W 071°03'0 0.1
2017-Nov-25 01:30N 42°23' W 071°03'0 0.0
2017-Nov-25 01:00N 42°23' W 071°03'0 0.0
2017-Nov-25 00:30N 42°23' W 071°03'0 0.0
2017-Nov-24 23:59N 42°23' W 071°03'0 0.0
2017-Nov-24 23:30N 42°23' W 071°03'0 0.0
2017-Nov-24 22:59N 42°23' W 071°03'1 1.3
2017-Nov-24 22:30N 42°22' W 071°03'5 3.0
2017-Nov-24 20:45N 42°21' W 070°56'1 1.6
2017-Nov-24 20:06N 42°22' W 070°55'6 3.5
2017-Nov-24 18:27N 42°22' W 071°03'1 1.3
2017-Nov-24 18:00N 42°22' W 071°03'0 0.0
2017-Nov-24 17:30N 42°22' W 071°03'0 0.0
2017-Nov-24 17:00N 42°22' W 071°03'0 0.0
2017-Nov-24 16:28N 42°22' W 071°03'0 0.0
2017-Nov-24 16:01N 42°22' W 071°03'0 0.0
2017-Nov-24 15:30N 42°22' W 071°03'0 0.0
2017-Nov-24 15:01N 42°22' W 071°03'0 0.0
2017-Nov-24 14:31N 42°22' W 071°03'0 0.0
2017-Nov-24 14:00N 42°22' W 071°03'0 0.0
2017-Nov-24 13:31N 42°22' W 071°03'0 0.0
2017-Nov-24 13:00N 42°22' W 071°03'0 0.0
2017-Nov-24 12:30N 42°22' W 071°03'0 0.0
2017-Nov-24 12:00N 42°22' W 071°03'0 0.0
2017-Nov-24 11:30N 42°22' W 071°03'0 0.0
2017-Nov-24 11:00N 42°22' W 071°03'0 0.0
2017-Nov-24 10:30N 42°22' W 071°03'0 0.0
2017-Nov-24 10:00N 42°22' W 071°03'0 0.0
2017-Nov-24 09:30N 42°22' W 071°03'0 0.0
2017-Nov-24 09:00N 42°22' W 071°03'0 0.0
2017-Nov-24 08:30N 42°22' W 071°03'0 0.0
2017-Nov-24 08:01N 42°22' W 071°03'0 0.0
2017-Nov-24 07:30N 42°22' W 071°03'0 0.0
2017-Nov-24 07:00N 42°22' W 071°03'0 0.0
2017-Nov-24 06:31N 42°22' W 071°03'0 0.0
2017-Nov-24 06:00N 42°22' W 071°03'0 0.0
2017-Nov-24 05:30N 42°22' W 071°03'0 0.0
2017-Nov-24 05:01N 42°22' W 071°03'0 0.0
2017-Nov-24 04:30N 42°22' W 071°03'0 0.0
2017-Nov-24 04:00N 42°22' W 071°03'0 0.0
2017-Nov-24 03:30N 42°22' W 071°03'0 0.0
2017-Nov-24 03:01N 42°22' W 071°03'0 0.0
2017-Nov-24 02:30N 42°22' W 071°03'0 0.0
2017-Nov-24 02:00N 42°22' W 071°03'0 0.0
2017-Nov-24 01:31N 42°22' W 071°03'0 0.0
2017-Nov-24 01:01N 42°22' W 071°03'0 0.0
2017-Nov-24 00:30N 42°22' W 071°03'0 0.4
2017-Nov-23 23:59N 42°23' W 071°03'0 0.3
2017-Nov-23 23:30N 42°23' W 071°03'0 0.0
2017-Nov-23 23:00N 42°23' W 071°03'1 1.3
2017-Nov-23 22:30N 42°22' W 071°03'1 1.1
2017-Nov-23 21:09N 42°21' W 071°02'2 1.4
2017-Nov-23 19:59N 42°22' W 071°03'0 0.2
2017-Nov-23 18:02N 42°23' W 071°03'0 2.7
2017-Nov-23 17:57N 42°23' W 071°03'0 0.1
2017-Nov-23 16:03N 42°22' W 071°03'0 0.0
2017-Nov-23 15:52N 42°22' W 071°03'0 0.0
2017-Nov-23 15:31N 42°22' W 071°03'0 0.0
2017-Nov-23 14:50N 42°22' W 071°03'0 0.3
2017-Nov-23 14:22N 42°22' W 071°03'0 0.2
2017-Nov-23 13:58N 42°23' W 071°03'0 0.0
2017-Nov-23 12:29N 42°23' W 071°03'0 0.1
2017-Nov-23 09:48N 42°23' W 071°03'0 0.2
2017-Nov-23 08:45N 42°23' W 071°03'0 0.1
2017-Nov-23 06:49N 42°23' W 071°03'0 0.1
2017-Nov-23 06:30N 42°23' W 071°03'0 0.0
2017-Nov-23 05:58N 42°23' W 071°03'0 0.3
2017-Nov-23 05:30N 42°23' W 071°03'0 0.4
2017-Nov-23 04:48N 42°23' W 071°03'0 0.1
2017-Nov-23 04:28N 42°23' W 071°03'0 0.1
2017-Nov-23 03:54N 42°23' W 071°03'0 0.4
2017-Nov-23 03:29N 42°22' W 071°03'0 0.1
2017-Nov-23 03:01N 42°22' W 071°03'0 0.0
2017-Nov-23 02:30N 42°22' W 071°03'0 0.4
2017-Nov-23 01:49N 42°23' W 071°03'0 0.2
2017-Nov-23 01:30N 42°22' W 071°03'0 0.0
2017-Nov-23 01:00N 42°22' W 071°03'0 0.0
2017-Nov-23 00:30N 42°22' W 071°03'0 0.0
2017-Nov-23 00:00N 42°22' W 071°03'0 0.0
2017-Nov-22 23:30N 42°22' W 071°03'0 0.0
2017-Nov-22 23:00N 42°22' W 071°03'0 0.0
2017-Nov-22 22:30N 42°22' W 071°03'0 0.0
2017-Nov-22 21:57N 42°22' W 071°03'0 0.0
2017-Nov-22 21:30N 42°22' W 071°03'0 0.0
2017-Nov-22 20:59N 42°22' W 071°03'0 0.0
2017-Nov-22 20:26N 42°22' W 071°03'0 0.0
2017-Nov-22 20:00N 42°22' W 071°03'1 1.6
2017-Nov-22 19:28N 42°22' W 071°02'  
2017-Nov-18 14:16N 42°23' W 071°03'0 0.0
2017-Nov-18 13:58N 42°23' W 071°03'0 0.0
2017-Nov-18 13:25N 42°23' W 071°03'0 0.0
2017-Nov-18 13:00N 42°23' W 071°03'0 0.0
2017-Nov-17 19:43N 42°23' W 071°03'0 0.0
2017-Nov-17 18:42N 42°23' W 071°03'0 0.0
2017-Nov-17 18:25N 42°23' W 071°03'0 0.0
2017-Nov-17 10:15N 42°23' W 071°03'0 0.0
2017-Nov-17 10:00N 42°23' W 071°03'0 0.0
2017-Nov-17 09:28N 42°23' W 071°03'0 0.0
2017-Nov-17 08:55N 42°23' W 071°03'0 0.0
2017-Nov-17 08:30N 42°23' W 071°03'0 0.0
2017-Nov-17 07:59N 42°23' W 071°03'0 0.0
2017-Nov-17 07:29N 42°23' W 071°03'0 0.0
2017-Nov-17 06:54N 42°23' W 071°03'0 0.0
2017-Nov-17 06:24N 42°23' W 071°03'0 0.0
2017-Nov-17 05:57N 42°23' W 071°03'0 0.0
2017-Nov-17 05:28N 42°23' W 071°03'0 0.0
2017-Nov-17 04:56N 42°23' W 071°03'0 0.0
2017-Nov-17 04:29N 42°23' W 071°03'0 0.0
2017-Nov-17 03:58N 42°23' W 071°03'0 0.0
2017-Nov-17 03:31N 42°23' W 071°03'0 0.0
2017-Nov-17 02:53N 42°23' W 071°03'0 0.0
2017-Nov-16 19:52N 42°23' W 071°03'0 0.0
2017-Nov-16 10:09N 42°23' W 071°03'0 0.0
2017-Nov-16 09:48N 42°23' W 071°03'0 0.0
2017-Nov-16 06:06N 42°23' W 071°03'0 0.0
2017-Nov-16 05:56N 42°23' W 071°03'0 0.0
2017-Nov-16 05:22N 42°23' W 071°03'0 0.0
2017-Nov-16 03:47N 42°23' W 071°03'0 0.0
2017-Nov-16 03:17N 42°23' W 071°03'0 0.0
2017-Nov-16 02:59N 42°23' W 071°03'0 0.0
2017-Nov-16 02:24N 42°23' W 071°03'0 0.0
2017-Nov-16 01:50N 42°23' W 071°03'0 0.0
2017-Nov-15 23:41N 42°23' W 071°03'0 0.0
2017-Nov-15 23:25N 42°23' W 071°03'0 0.0
2017-Nov-15 03:15N 42°23' W 071°03'  

Dump ship's entire track history